Time;durP1;ratioP1;P1;durP2;ratioP2;P2;SDS_P1;SDS_P2;PMS_P1;PMS_P2;Temp;Humidity;BMP_temperature;BMP_pressure;BME280_temperature;BME280_humidity;BME280_pressure;Samples;Min_cycle;Max_cycle;Signal;HPM_P1;HPM_P2
2022/07/28 00:00:10;;;;;;;11.18;4.28;;;28.40;95.20;;;;;;5152110;27;20126;-71
2022/07/28 00:02:38;;;;;;;9.98;4.53;;;28.30;95.20;;;;;;5152137;27;20426;-71
2022/07/28 00:05:06;;;;;;;15.07;4.20;;;28.30;95.20;;;;;;5133896;27;20039;-71
2022/07/28 00:07:34;;;;;;;10.48;3.75;;;28.20;95.00;;;;;;5133111;27;20439;-71
2022/07/28 00:10:02;;;;;;;9.02;4.20;;;28.30;95.00;;;;;;5151702;27;20042;-71
2022/07/28 00:12:30;;;;;;;10.18;3.58;;;28.20;94.90;;;;;;5133352;27;20465;-71
2022/07/28 00:14:57;;;;;;;14.27;4.63;;;28.20;94.90;;;;;;5116514;27;20047;-71
2022/07/28 00:17:25;;;;;;;11.25;4.30;;;28.20;94.70;;;;;;5133146;27;20035;-71
2022/07/28 00:19:53;;;;;;;10.32;3.90;;;28.20;94.70;;;;;;5133400;27;20042;-71
2022/07/28 00:22:20;;;;;;;10.38;4.70;;;28.20;94.50;;;;;;5133254;27;20620;-71
2022/07/28 00:24:48;;;;;;;8.00;4.22;;;28.20;94.40;;;;;;5133175;27;20039;-71
2022/07/28 00:27:17;;;;;;;14.23;4.28;;;28.20;94.40;;;;;;5151536;27;20160;-71
2022/07/28 00:29:45;;;;;;;11.27;3.75;;;28.30;94.30;;;;;;5133301;27;20046;-71
2022/07/28 00:32:16;;;;;;;10.13;3.70;;;28.30;94.20;;;;;;5133733;27;20043;-71
2022/07/28 00:34:43;;;;;;;8.85;3.90;;;28.30;94.20;;;;;;5133574;27;20129;-71
2022/07/28 00:37:11;;;;;;;8.60;4.07;;;28.30;94.20;;;;;;5133354;27;20047;-71
2022/07/28 00:39:38;;;;;;;10.77;4.07;;;28.40;94.10;;;;;;5151535;27;20134;-71
2022/07/28 00:42:06;;;;;;;16.95;4.88;;;28.30;94.10;;;;;;5151321;27;20043;-71
2022/07/28 00:44:34;;;;;;;8.57;3.58;;;28.30;94.20;;;;;;5115548;27;20042;-71
2022/07/28 00:47:01;;;;;;;8.48;3.17;;;28.30;94.20;;;;;;5133194;27;20141;-71
2022/07/28 00:49:29;;;;;;;10.07;3.78;;;28.20;94.50;;;;;;5133329;27;20049;-71
2022/07/28 00:51:57;;;;;;;13.30;4.47;;;28.20;94.30;;;;;;5133044;27;20434;-71
2022/07/28 00:54:26;;;;;;;8.85;3.95;;;28.10;94.30;;;;;;5161915;27;20050;-71
2022/07/28 00:56:53;;;;;;;9.27;3.85;;;28.10;94.40;;;;;;5130826;27;20399;-72
2022/07/28 00:59:21;;;;;;;11.65;3.80;;;28.20;94.30;;;;;;5153662;27;20066;-71
2022/07/28 01:01:49;;;;;;;10.05;3.60;;;28.20;94.30;;;;;;5172215;27;20034;-71
2022/07/28 01:04:17;;;;;;;14.75;4.03;;;28.30;94.30;;;;;;5172284;27;20045;-72
2022/07/28 01:07:06;;;;;;;8.93;3.58;;;28.20;94.20;;;;;;5172287;27;20053;-71
2022/07/28 01:10:04;;;;;;;14.60;4.53;;;28.30;94.20;;;;;;5153742;27;20093;-71
2022/07/28 01:12:31;;;;;;;10.52;4.28;;;28.20;94.10;;;;;;5172197;27;20125;-71
2022/07/28 01:15:08;;;;;;;9.30;4.30;;;28.30;94.10;;;;;;5172188;27;20030;-71
2022/07/28 01:17:44;;;;;;;14.07;5.15;;;28.20;94.00;;;;;;5136965;27;20522;-71
2022/07/28 01:20:16;;;;;;;9.13;4.15;;;28.20;94.00;;;;;;5157929;27;20046;-71
2022/07/28 01:23:03;;;;;;;8.07;4.28;;;28.20;93.90;;;;;;5157306;27;20050;-71
2022/07/28 01:25:58;;;;;;;9.57;4.90;;;28.20;93.90;;;;;;5175969;27;20571;-71
2022/07/28 01:28:50;;;;;;;16.77;4.80;;;28.20;93.80;;;;;;5176328;27;20048;-71
2022/07/28 01:31:26;;;;;;;12.05;5.07;;;28.10;94.00;;;;;;5157152;27;20107;-72
2022/07/28 01:33:58;;;;;;;12.48;5.50;;;28.00;94.00;;;;;;5157232;27;20535;-71
2022/07/28 01:36:32;;;;;;;13.75;5.88;;;28.00;93.90;;;;;;5139913;27;20399;-71
2022/07/28 01:39:00;;;;;;;12.90;4.80;;;28.10;93.90;;;;;;5175469;27;20568;-72
2022/07/28 01:41:31;;;;;;;19.70;6.20;;;28.10;93.80;;;;;;5139161;27;20166;-72
2022/07/28 01:44:05;;;;;;;13.40;5.57;;;28.20;93.70;;;;;;5137254;27;20492;-71
2022/07/28 01:46:34;;;;;;;11.45;5.28;;;28.20;93.60;;;;;;5135987;27;20137;-71
2022/07/28 01:49:02;;;;;;;10.00;5.38;;;28.20;93.50;;;;;;5118495;27;20039;-72
2022/07/28 01:51:32;;;;;;;9.02;5.00;;;28.30;93.50;;;;;;5154512;27;20035;-72
2022/07/28 01:54:01;;;;;;;9.30;5.15;;;28.30;93.40;;;;;;5136154;27;20169;-71
2022/07/28 01:56:32;;;;;;;10.30;4.85;;;28.40;93.30;;;;;;5136135;27;20501;-71
2022/07/28 01:59:08;;;;;;;11.35;5.55;;;28.50;93.20;;;;;;5154372;27;20556;-72
2022/07/28 02:01:42;;;;;;;14.02;5.38;;;28.60;93.10;;;;;;5136299;27;20553;-71
2022/07/28 02:04:11;;;;;;;11.40;5.30;;;28.60;92.90;;;;;;5118577;27;20045;-71
2022/07/28 02:06:41;;;;;;;17.10;5.80;;;28.70;92.90;;;;;;5135610;27;20051;-71
2022/07/28 02:09:09;;;;;;;9.38;4.80;;;28.80;92.80;;;;;;5135950;27;20047;-71
2022/07/28 02:11:38;;;;;;;10.93;5.13;;;28.80;92.70;;;;;;5118446;27;20091;-72
2022/07/28 02:14:22;;;;;;;7.88;4.40;;;28.90;92.70;;;;;;5135167;27;20049;-73
2022/07/28 02:16:57;;;;;;;12.18;6.45;;;28.90;92.70;;;;;;5118232;27;20039;-72
2022/07/28 02:19:26;;;;;;;14.07;4.68;;;28.90;92.50;;;;;;5154183;27;20035;-71
2022/07/28 02:21:55;;;;;;;12.30;5.18;;;28.90;92.50;;;;;;5135812;27;20129;-72
2022/07/28 02:24:25;;;;;;;14.95;6.03;;;28.90;92.50;;;;;;5118429;27;20088;-72
2022/07/28 02:27:07;;;;;;;13.77;5.32;;;28.90;92.40;;;;;;5118719;27;20145;-73
2022/07/28 02:29:44;;;;;;;16.05;5.53;;;28.90;92.40;;;;;;5134560;27;20046;-72
2022/07/28 02:32:41;;;;;;;10.65;5.93;;;28.90;92.40;;;;;;5121070;27;20046;-73
2022/07/28 02:35:19;;;;;;;12.93;4.45;;;28.90;92.50;;;;;;5152480;27;20035;-73
2022/07/28 02:37:53;;;;;;;14.60;5.45;;;28.90;92.50;;;;;;5124873;27;20052;-73
2022/07/28 02:40:22;;;;;;;12.00;5.05;;;28.90;92.50;;;;;;5155822;27;20094;-72
2022/07/28 02:42:52;;;;;;;17.65;6.72;;;28.90;92.60;;;;;;5156170;27;20046;-73
2022/07/28 02:45:25;;;;;;;10.55;6.03;;;28.80;92.70;;;;;;5155615;27;20428;-73
2022/07/28 02:47:57;;;;;;;16.20;5.35;;;28.80;92.70;;;;;;5155695;27;20420;-73
2022/07/28 02:50:27;;;;;;;10.35;5.55;;;28.80;92.80;;;;;;5174660;27;20038;-72
2022/07/28 02:53:01;;;;;;;14.07;5.85;;;28.80;92.80;;;;;;5138736;27;20587;-72
2022/07/28 02:55:29;;;;;;;12.35;5.40;;;28.80;92.90;;;;;;5121146;27;20054;-72
2022/07/28 02:57:58;;;;;;;10.43;5.78;;;28.80;92.90;;;;;;5138348;27;20042;-72
2022/07/28 03:00:27;;;;;;;13.70;7.45;;;28.80;93.00;;;;;;5153467;27;20042;-72
2022/07/28 03:02:56;;;;;;;14.05;6.03;;;28.80;93.10;;;;;;5140363;27;20396;-73
2022/07/28 03:05:25;;;;;;;9.60;5.28;;;28.80;93.20;;;;;;5134564;27;20058;-72
2022/07/28 03:07:53;;;;;;;13.25;6.40;;;28.80;93.20;;;;;;5134463;27;20035;-72
2022/07/28 03:10:24;;;;;;;10.20;5.25;;;28.70;93.30;;;;;;5152732;27;20046;-72
2022/07/28 03:12:54;;;;;;;14.18;4.45;;;28.70;93.40;;;;;;5134319;27;20050;-73
2022/07/28 03:15:22;;;;;;;13.00;5.10;;;28.70;93.40;;;;;;5152760;27;20042;-72
2022/07/28 03:17:51;;;;;;;20.20;7.18;;;28.80;93.50;;;;;;5117590;27;20046;-72
2022/07/28 03:20:19;;;;;;;9.63;6.97;;;28.80;93.60;;;;;;5134205;27;20053;-72
2022/07/28 03:22:46;;;;;;;10.73;5.05;;;28.70;93.60;;;;;;5117032;27;20496;-74
2022/07/28 03:25:22;;;;;;;14.50;6.15;;;28.70;93.70;;;;;;5134073;27;20043;-72
2022/07/28 03:27:51;;;;;;;14.98;6.40;;;28.70;93.70;;;;;;5137490;27;20073;-72
2022/07/28 03:30:25;;;;;;;19.95;7.57;;;28.70;93.80;;;;;;5154654;27;20133;-73
2022/07/28 03:32:58;;;;;;;13.93;5.30;;;28.70;93.90;;;;;;5152685;27;20050;-72
2022/07/28 03:35:26;;;;;;;10.73;5.45;;;28.70;93.90;;;;;;5154200;27;20054;-73
2022/07/28 03:38:22;;;;;;;17.10;7.95;;;28.70;93.90;;;;;;5154127;27;20497;-72
2022/07/28 03:40:53;;;;;;;18.23;5.93;;;28.70;94.10;;;;;;5164219;27;20159;-73
2022/07/28 03:43:24;;;;;;;13.20;5.80;;;28.70;94.10;;;;;;5136741;27;20046;-72
2022/07/28 03:45:51;;;;;;;10.95;5.60;;;28.70;94.20;;;;;;5119815;27;20727;-73
2022/07/28 03:48:23;;;;;;;11.43;5.40;;;28.70;94.20;;;;;;5154193;27;20140;-73
2022/07/28 03:50:51;;;;;;;12.65;4.95;;;28.70;94.30;;;;;;5137277;27;20054;-73
2022/07/28 03:53:24;;;;;;;12.50;5.70;;;28.70;94.30;;;;;;5154178;27;20340;-73
2022/07/28 03:55:52;;;;;;;9.48;4.97;;;28.70;94.40;;;;;;5172213;27;20386;-72
2022/07/28 03:58:23;;;;;;;14.50;6.53;;;28.80;94.50;;;;;;5172634;27;20091;-73
2022/07/28 04:00:51;;;;;;;21.15;5.50;;;28.80;95.00;;;;;;5137237;27;20042;-72
2022/07/28 04:03:19;;;;;;;15.88;5.25;;;28.90;94.90;;;;;;5135869;27;20102;-73
2022/07/28 04:05:47;;;;;;;12.93;5.30;;;28.90;94.80;;;;;;5136563;27;20125;-73
2022/07/28 04:08:15;;;;;;;9.18;4.53;;;28.90;95.10;;;;;;5154153;27;20050;-72
2022/07/28 04:10:43;;;;;;;14.82;5.15;;;29.00;95.20;;;;;;5153908;27;20043;-73
2022/07/28 04:13:11;;;;;;;12.23;5.55;;;29.00;95.30;;;;;;5136849;27;20034;-72
2022/07/28 04:15:38;;;;;;;11.77;5.78;;;29.10;95.20;;;;;;5136767;27;20123;-73
2022/07/28 04:18:06;;;;;;;15.05;6.10;;;29.10;95.20;;;;;;5144847;27;20077;-73
2022/07/28 04:20:33;;;;;;;13.48;5.20;;;29.10;95.20;;;;;;5133470;27;20463;-72
2022/07/28 04:23:01;;;;;;;14.48;5.95;;;29.10;95.00;;;;;;5116089;27;20138;-72
2022/07/28 04:25:29;;;;;;;14.00;6.05;;;29.20;94.90;;;;;;5116358;27;20138;-72
2022/07/28 04:27:56;;;;;;;13.98;5.63;;;29.30;94.90;;;;;;5098654;27;20053;-72
2022/07/28 04:30:24;;;;;;;13.10;5.18;;;29.30;94.90;;;;;;5116036;27;20050;-73
2022/07/28 04:32:54;;;;;;;11.68;5.38;;;29.30;94.90;;;;;;5116287;27;20427;-72
2022/07/28 04:35:27;;;;;;;23.95;6.05;;;29.40;94.90;;;;;;5098928;27;20099;-72
2022/07/28 04:37:57;;;;;;;12.45;6.13;;;29.50;94.90;;;;;;5115548;27;20548;-72
2022/07/28 04:40:25;;;;;;;10.98;5.55;;;29.60;94.90;;;;;;5129192;28;20055;-73
2022/07/28 04:42:54;;;;;;;15.15;5.50;;;29.60;94.80;;;;;;5129275;28;20039;-73
2022/07/28 04:45:22;;;;;;;16.65;7.22;;;29.70;94.70;;;;;;5112204;28;20075;-72
2022/07/28 04:47:50;;;;;;;16.85;7.18;;;29.80;94.60;;;;;;5094967;28;20141;-72
2022/07/28 04:50:20;;;;;;;15.55;5.70;;;29.90;94.60;;;;;;5129321;28;20149;-72
2022/07/28 04:52:57;;;;;;;16.65;5.28;;;29.90;94.40;;;;;;5130407;27;20054;-72
2022/07/28 04:55:25;;;;;;;12.40;5.22;;;30.00;94.20;;;;;;5116360;27;20066;-73
2022/07/28 04:57:53;;;;;;;19.50;5.22;;;30.10;94.10;;;;;;5099091;27;20076;-72
2022/07/28 05:00:21;;;;;;;13.10;5.72;;;30.20;94.00;;;;;;5133254;27;20058;-73
2022/07/28 05:02:50;;;;;;;12.70;5.20;;;30.30;93.80;;;;;;5133020;27;20047;-72
2022/07/28 05:05:17;;;;;;;16.40;6.88;;;30.40;93.70;;;;;;5116132;27;20049;-72
2022/07/28 05:07:45;;;;;;;13.77;4.95;;;30.50;93.50;;;;;;5098887;27;20043;-72
2022/07/28 05:10:13;;;;;;;13.15;5.93;;;30.60;93.40;;;;;;5132773;27;20061;-72
2022/07/28 05:12:40;;;;;;;11.40;5.75;;;30.60;93.20;;;;;;5127780;27;20104;-73
2022/07/28 05:15:08;;;;;;;10.70;5.18;;;30.80;93.10;;;;;;5132618;27;20051;-72
2022/07/28 05:17:36;;;;;;;19.33;6.35;;;30.80;93.00;;;;;;5133196;27;20071;-73
2022/07/28 05:20:05;;;;;;;17.33;5.53;;;30.90;92.90;;;;;;5132248;27;20047;-72
2022/07/28 05:22:49;;;;;;;17.75;5.28;;;31.00;92.80;;;;;;5115952;27;20421;-73
2022/07/28 05:25:19;;;;;;;10.27;5.57;;;31.10;92.70;;;;;;5099005;27;20047;-73
2022/07/28 05:27:49;;;;;;;12.82;5.28;;;31.30;92.60;;;;;;5098471;27;20063;-72
2022/07/28 05:30:17;;;;;;;18.10;6.50;;;31.30;92.40;;;;;;5132718;27;20114;-73
2022/07/28 05:32:45;;;;;;;13.15;5.80;;;31.40;92.40;;;;;;5115602;27;20089;-73
2022/07/28 05:35:13;;;;;;;16.17;6.45;;;31.40;92.20;;;;;;5133856;27;20054;-73
2022/07/28 05:37:41;;;;;;;15.45;6.32;;;31.60;92.10;;;;;;5115682;27;20047;-73
2022/07/28 05:40:15;;;;;;;13.15;6.35;;;31.60;91.70;;;;;;5111607;28;20117;-72
2022/07/28 05:42:43;;;;;;;18.08;6.72;;;31.70;91.40;;;;;;5111806;28;20490;-73
2022/07/28 05:45:11;;;;;;;13.48;5.30;;;31.80;91.10;;;;;;5077685;28;20039;-73
2022/07/28 05:47:42;;;;;;;14.43;5.55;;;31.90;90.80;;;;;;5111846;28;20058;-71
2022/07/28 05:50:11;;;;;;;10.15;5.32;;;31.90;90.60;;;;;;5112861;28;20036;-71
2022/07/28 05:52:38;;;;;;;11.32;6.35;;;32.10;90.60;;;;;;5094876;28;20091;-71
2022/07/28 05:55:06;;;;;;;10.55;4.22;;;32.20;90.30;;;;;;5111899;28;20040;-70
2022/07/28 05:57:36;;;;;;;12.00;5.70;;;32.30;90.00;;;;;;5111767;28;20135;-70
2022/07/28 06:00:10;;;;;;;12.35;5.05;;;32.30;89.70;;;;;;5094750;28;20055;-71
2022/07/28 06:02:38;;;;;;;16.95;5.63;;;32.40;89.50;;;;;;5111641;28;20108;-70
2022/07/28 06:05:06;;;;;;;14.52;5.97;;;32.50;89.10;;;;;;5110135;28;20035;-70
2022/07/28 06:07:34;;;;;;;10.18;4.70;;;32.60;88.70;;;;;;5117578;27;20169;-70
2022/07/28 06:10:03;;;;;;;14.43;5.18;;;32.70;88.20;;;;;;5114967;27;20058;-70
2022/07/28 06:12:30;;;;;;;15.30;5.70;;;32.80;87.70;;;;;;5114712;27;20047;-71
2022/07/28 06:15:02;;;;;;;8.68;5.30;;;32.90;87.10;;;;;;5133450;27;20489;-70
2022/07/28 06:17:31;;;;;;;9.65;4.38;;;32.90;86.50;;;;;;5131802;27;20408;-70
2022/07/28 06:19:58;;;;;;;9.60;4.53;;;33.00;86.70;;;;;;5131463;27;20720;-70
2022/07/28 06:22:26;;;;;;;11.23;5.53;;;33.00;86.30;;;;;;5132847;27;20055;-70
2022/07/28 06:24:54;;;;;;;11.77;5.43;;;33.10;86.20;;;;;;5132448;27;20039;-70
2022/07/28 06:27:22;;;;;;;9.43;4.15;;;33.20;86.00;;;;;;5114417;27;20043;-70
2022/07/28 06:29:50;;;;;;;10.27;4.57;;;33.40;85.40;;;;;;5131060;27;20035;-70
2022/07/28 06:32:17;;;;;;;12.55;4.95;;;33.40;85.00;;;;;;5131414;27;20047;-70
2022/07/28 06:34:45;;;;;;;11.20;4.80;;;33.60;84.80;;;;;;5114345;27;20115;-72
2022/07/28 06:37:13;;;;;;;10.57;4.70;;;33.70;84.10;;;;;;5131253;27;20039;-71
2022/07/28 06:39:40;;;;;;;10.85;4.68;;;33.70;83.60;;;;;;5126921;27;20089;-71
2022/07/28 06:42:08;;;;;;;7.13;4.40;;;33.90;83.30;;;;;;5151813;27;20134;-72
2022/07/28 06:44:35;;;;;;;10.30;4.75;;;34.00;83.30;;;;;;5151996;27;20054;-71
2022/07/28 06:47:14;;;;;;;11.45;4.07;;;34.00;83.20;;;;;;5134376;27;20054;-70
2022/07/28 06:49:42;;;;;;;11.23;5.47;;;34.10;83.10;;;;;;5134690;27;20039;-70
2022/07/28 06:52:10;;;;;;;9.82;3.92;;;34.10;82.50;;;;;;5134324;27;20042;-71
2022/07/28 06:54:37;;;;;;;7.72;3.53;;;34.20;82.50;;;;;;5134259;27;20050;-71
2022/07/28 06:57:07;;;;;;;17.52;4.63;;;34.40;81.70;;;;;;5151535;27;20477;-72
2022/07/28 06:59:35;;;;;;;9.32;5.15;;;34.40;80.90;;;;;;5151717;27;20394;-71
2022/07/28 07:02:03;;;;;;;12.05;3.75;;;34.50;79.50;;;;;;5149148;27;20041;-71
2022/07/28 07:04:31;;;;;;;6.35;3.85;;;34.70;79.50;;;;;;5151089;27;20119;-71
2022/07/28 07:06:59;;;;;;;8.82;3.60;;;34.70;79.10;;;;;;5151341;27;20462;-72
2022/07/28 07:09:26;;;;;;;9.60;4.05;;;34.80;79.10;;;;;;5134099;27;20046;-70
2022/07/28 07:11:55;;;;;;;6.57;3.60;;;34.80;78.90;;;;;;5150754;27;20506;-71
2022/07/28 07:14:23;;;;;;;9.80;4.57;;;34.80;78.50;;;;;;5151047;27;20527;-72
2022/07/28 07:16:51;;;;;;;9.07;3.92;;;34.60;78.60;;;;;;5133695;27;20050;-71
2022/07/28 07:19:19;;;;;;;8.80;3.90;;;34.50;78.40;;;;;;5151433;27;20400;-71
2022/07/28 07:21:49;;;;;;;8.85;3.70;;;34.40;78.80;;;;;;5150630;27;20043;-71
2022/07/28 07:24:17;;;;;;;9.40;3.63;;;34.20;78.40;;;;;;5133784;27;20055;-71
2022/07/28 07:26:45;;;;;;;7.85;3.85;;;34.20;78.90;;;;;;5152556;27;20046;-71
2022/07/28 07:29:12;;;;;;;7.72;3.30;;;34.30;77.80;;;;;;5150735;27;20446;-70
2022/07/28 07:31:40;;;;;;;7.57;4.22;;;34.40;78.60;;;;;;5150392;27;20507;-71
2022/07/28 07:34:08;;;;;;;6.60;3.53;;;34.60;78.10;;;;;;5116375;27;20792;-71
2022/07/28 07:36:35;;;;;;;5.10;3.25;;;34.70;77.20;;;;;;5116476;27;20076;-71
2022/07/28 07:39:03;;;;;;;10.00;3.42;;;35.00;76.50;;;;;;5150266;27;20082;-71
2022/07/28 07:41:31;;;;;;;6.40;2.80;;;35.10;75.80;;;;;;5133520;27;20050;-70
2022/07/28 07:43:59;;;;;;;8.20;2.88;;;35.10;73.80;;;;;;5150214;27;20078;-71
2022/07/28 07:46:26;;;;;;;7.30;3.28;;;35.00;74.90;;;;;;5150674;27;20038;-71
2022/07/28 07:48:54;;;;;;;7.32;3.13;;;35.10;75.40;;;;;;5150288;27;20449;-71
2022/07/28 07:51:22;;;;;;;20.00;3.22;;;35.20;75.80;;;;;;5149088;27;20118;-71
2022/07/28 07:53:50;;;;;;;6.50;3.05;;;35.20;75.50;;;;;;5130764;27;20370;-71
2022/07/28 07:56:18;;;;;;;6.35;3.33;;;35.40;76.00;;;;;;5112310;27;20146;-71
2022/07/28 07:58:48;;;;;;;7.63;3.30;;;35.50;76.50;;;;;;5112827;28;20043;-72
2022/07/28 08:01:17;;;;;;;6.15;3.00;;;35.60;75.90;;;;;;5112708;28;20047;-71
2022/07/28 08:03:46;;;;;;;6.50;3.40;;;35.70;75.80;;;;;;5129692;27;20173;-71
2022/07/28 08:06:14;;;;;;;5.03;2.92;;;35.80;75.40;;;;;;5129678;27;20141;-72
2022/07/28 08:08:42;;;;;;;7.20;3.20;;;35.90;75.20;;;;;;5113073;27;20509;-72
2022/07/28 08:11:14;;;;;;;6.95;3.42;;;35.70;76.20;;;;;;5131073;27;20054;-72
2022/07/28 08:13:42;;;;;;;10.30;2.78;;;35.80;77.00;;;;;;5129524;28;20043;-73
2022/07/28 08:16:10;;;;;;;4.70;2.22;;;35.70;76.20;;;;;;5095717;28;20062;-72
2022/07/28 08:18:38;;;;;;;5.35;2.20;;;35.80;75.90;;;;;;5112299;28;20181;-72
2022/07/28 08:21:06;;;;;;;4.57;2.13;;;35.70;75.80;;;;;;5095840;28;20070;-72
2022/07/28 08:23:34;;;;;;;12.52;2.92;;;35.60;75.00;;;;;;5112635;28;20051;-71
2022/07/28 08:26:03;;;;;;;7.68;2.53;;;35.60;75.30;;;;;;5111953;28;20142;-72
2022/07/28 08:28:30;;;;;;;6.30;2.80;;;35.60;75.80;;;;;;5132391;27;20062;-72
2022/07/28 08:30:58;;;;;;;4.38;2.20;;;35.70;75.40;;;;;;5133237;27;20598;-72
2022/07/28 08:33:26;;;;;;;7.25;2.30;;;35.60;75.30;;;;;;5116667;27;20134;-72
2022/07/28 08:35:54;;;;;;;6.32;2.13;;;35.60;75.50;;;;;;5134280;27;20552;-72
2022/07/28 08:38:22;;;;;;;6.45;3.05;;;35.60;75.50;;;;;;5135270;27;20069;-72
2022/07/28 08:40:52;;;;;;;5.35;2.42;;;35.60;75.30;;;;;;5155181;27;20043;-72
2022/07/28 08:43:32;;;;;;;5.07;2.30;;;35.70;75.10;;;;;;5155441;27;20043;-72
2022/07/28 08:46:01;;;;;;;11.73;3.00;;;35.80;74.80;;;;;;5136838;27;20049;-72
2022/07/28 08:48:30;;;;;;;7.65;2.65;;;35.80;74.90;;;;;;5137093;27;20222;-72
2022/07/28 08:51:01;;;;;;;4.70;2.50;;;35.80;74.60;;;;;;5119623;27;20046;-72
2022/07/28 08:53:30;;;;;;;3.92;2.10;;;35.80;74.10;;;;;;5102747;27;20046;-72
2022/07/28 08:56:04;;;;;;;9.15;2.97;;;35.80;74.10;;;;;;5118968;27;20165;-72
2022/07/28 08:58:33;;;;;;;10.27;2.70;;;35.90;73.90;;;;;;5155202;27;20049;-72
2022/07/28 09:01:02;;;;;;;5.82;2.90;;;35.80;74.70;;;;;;5102781;27;20046;-71
2022/07/28 09:03:30;;;;;;;4.13;2.35;;;35.70;75.80;;;;;;5136592;27;20090;-72
2022/07/28 09:05:58;;;;;;;7.10;2.78;;;35.80;75.40;;;;;;5136011;27;20480;-71
2022/07/28 09:08:25;;;;;;;6.10;2.83;;;35.80;74.90;;;;;;5136114;27;20050;-72
2022/07/28 09:10:53;;;;;;;8.38;2.67;;;35.80;75.50;;;;;;5136693;27;20050;-71
2022/07/28 09:13:21;;;;;;;6.30;2.38;;;35.60;76.00;;;;;;5154652;27;20042;-71
2022/07/28 09:15:49;;;;;;;4.30;2.38;;;35.50;76.40;;;;;;5119090;27;20050;-71
2022/07/28 09:18:17;;;;;;;5.38;2.53;;;35.50;76.40;;;;;;5154389;27;20119;-71
2022/07/28 09:20:45;;;;;;;7.93;2.78;;;35.30;76.40;;;;;;5118636;27;20058;-72
2022/07/28 09:23:13;;;;;;;5.05;2.60;;;35.40;76.50;;;;;;5135988;27;20496;-72
2022/07/28 09:25:41;;;;;;;3.72;2.42;;;35.40;76.40;;;;;;5154741;27;20043;-71
2022/07/28 09:28:12;;;;;;;5.10;2.80;;;35.50;76.80;;;;;;5154276;27;20082;-72
2022/07/28 09:30:45;;;;;;;7.18;3.05;;;35.50;76.80;;;;;;5119603;27;20055;-72
2022/07/28 09:33:12;;;;;;;8.63;2.85;;;35.50;76.10;;;;;;5119320;27;20038;-72
2022/07/28 09:35:53;;;;;;;4.68;2.80;;;35.40;77.50;;;;;;5101700;27;20107;-72
2022/07/28 09:38:24;;;;;;;6.60;2.65;;;35.50;77.40;;;;;;5135596;27;20493;-72
2022/07/28 09:41:00;;;;;;;5.68;2.70;;;35.20;77.50;;;;;;5118772;27;20177;-72
2022/07/28 09:43:42;;;;;;;4.55;2.55;;;35.10;77.30;;;;;;5118569;27;20053;-71
2022/07/28 09:46:14;;;;;;;5.00;3.10;;;35.10;77.30;;;;;;5117656;27;20035;-72
2022/07/28 09:48:48;;;;;;;4.43;2.90;;;35.20;78.40;;;;;;5136296;27;20066;-72
2022/07/28 09:51:24;;;;;;;6.18;3.55;;;35.30;78.60;;;;;;5136543;27;20376;-72
2022/07/28 09:53:53;;;;;;;5.45;2.63;;;35.10;79.20;;;;;;5136348;27;20060;-72
2022/07/28 09:56:22;;;;;;;8.23;2.80;;;35.10;78.70;;;;;;5118697;27;20094;-71
2022/07/28 09:58:58;;;;;;;6.95;3.40;;;35.10;79.50;;;;;;5153295;27;20050;-72
2022/07/28 10:01:26;;;;;;;5.43;3.58;;;35.00;79.60;;;;;;5118812;27;20046;-71
2022/07/28 10:03:56;;;;;;;8.15;3.22;;;34.90;79.50;;;;;;5152903;27;20118;-71
2022/07/28 10:06:28;;;;;;;8.18;3.75;;;34.90;80.30;;;;;;5102174;27;20087;-71
2022/07/28 10:09:00;;;;;;;5.00;3.90;;;34.90;80.40;;;;;;5135724;27;20587;-72
2022/07/28 10:11:29;;;;;;;11.48;4.10;;;34.80;80.90;;;;;;5136043;27;20047;-71
2022/07/28 10:14:05;;;;;;;5.45;2.90;;;34.80;80.50;;;;;;5135726;27;20038;-71
2022/07/28 10:16:40;;;;;;;7.00;3.42;;;34.80;80.50;;;;;;5118227;27;20500;-71
2022/07/28 10:19:08;;;;;;;6.03;3.42;;;34.90;80.50;;;;;;5135852;27;20129;-71
2022/07/28 10:21:45;;;;;;;5.97;3.03;;;34.90;80.70;;;;;;5153611;27;20129;-72
2022/07/28 10:24:20;;;;;;;5.80;3.20;;;34.90;80.30;;;;;;5135849;27;20061;-71
2022/07/28 10:26:51;;;;;;;8.15;3.13;;;35.10;80.60;;;;;;5135752;27;20038;-71
2022/07/28 10:29:21;;;;;;;6.45;3.22;;;34.90;79.40;;;;;;5135727;27;20054;-72
2022/07/28 10:31:54;;;;;;;6.47;2.70;;;34.80;78.60;;;;;;5134911;27;20043;-71
2022/07/28 10:34:29;;;;;;;9.18;3.33;;;34.70;76.90;;;;;;5153844;27;20389;-71
2022/07/28 10:37:03;;;;;;;5.88;3.90;;;34.50;78.00;;;;;;5142176;27;20079;-71
2022/07/28 10:39:49;;;;;;;6.82;3.08;;;34.50;79.50;;;;;;5155604;27;20499;-71
2022/07/28 10:42:19;;;;;;;5.63;3.45;;;34.50;79.40;;;;;;5156442;27;20073;-71
2022/07/28 10:44:48;;;;;;;6.15;3.58;;;34.70;79.40;;;;;;5155895;27;20045;-72
2022/07/28 10:47:19;;;;;;;5.82;2.67;;;34.70;78.80;;;;;;5155932;27;20091;-71
2022/07/28 10:49:47;;;;;;;5.28;2.95;;;34.70;78.20;;;;;;5121394;27;20078;-71
2022/07/28 10:52:19;;;;;;;9.73;3.45;;;34.80;78.00;;;;;;5154908;27;20496;-72
2022/07/28 10:55:19;;;;;;;8.52;3.03;;;34.80;78.40;;;;;;5138156;27;20544;-71
2022/07/28 10:58:05;;;;;;;5.30;3.08;;;34.90;79.20;;;;;;5155596;27;20046;-71
2022/07/28 11:00:39;;;;;;;13.55;3.53;;;34.80;80.30;;;;;;5121374;27;20420;-72
2022/07/28 11:03:39;;;;;;;6.82;3.20;;;34.80;80.20;;;;;;5138206;27;20046;-71
2022/07/28 11:06:33;;;;;;;4.55;2.72;;;34.80;79.70;;;;;;5155529;27;20042;-72
2022/07/28 11:09:16;;;;;;;7.60;3.47;;;34.80;80.00;;;;;;5147457;27;20042;-72
2022/07/28 11:11:50;;;;;;;9.38;3.25;;;34.90;78.50;;;;;;5138157;27;20141;-72
2022/07/28 11:14:28;;;;;;;6.30;2.80;;;34.90;78.70;;;;;;5138442;27;20042;-71
2022/07/28 11:17:02;;;;;;;7.47;2.90;;;34.80;79.20;;;;;;5155498;27;20050;-72
2022/07/28 11:19:30;;;;;;;5.70;3.45;;;34.70;79.50;;;;;;5155279;27;20061;-71
2022/07/28 11:22:14;;;;;;;6.63;2.67;;;34.60;80.00;;;;;;5155018;27;20038;-71
2022/07/28 11:24:57;;;;;;;8.35;3.35;;;34.60;79.20;;;;;;5137770;27;20073;-72
2022/07/28 11:27:40;;;;;;;9.00;3.60;;;34.40;79.10;;;;;;5154950;27;20038;-72
2022/07/28 11:30:10;;;;;;;7.45;3.63;;;34.30;79.70;;;;;;5101867;27;20146;-72
2022/07/28 11:32:52;;;;;;;7.30;3.33;;;34.30;80.70;;;;;;5117469;27;20051;-72
2022/07/28 11:35:29;;;;;;;6.53;3.30;;;34.50;79.80;;;;;;5134331;27;20157;-72
2022/07/28 11:38:00;;;;;;;6.80;4.30;;;34.60;80.00;;;;;;5134045;27;20046;-72
2022/07/28 11:40:49;;;;;;;5.38;2.88;;;34.70;79.40;;;;;;5116834;27;20496;-71
2022/07/28 11:43:23;;;;;;;8.48;3.03;;;34.40;78.60;;;;;;5117468;27;20141;-72
2022/07/28 11:46:07;;;;;;;8.20;3.60;;;34.50;79.30;;;;;;5100055;27;20104;-72
2022/07/28 11:48:39;;;;;;;7.15;3.55;;;34.40;80.80;;;;;;5117292;27;20085;-73
2022/07/28 11:51:06;;;;;;;7.38;2.88;;;34.50;80.00;;;;;;5116885;27;20057;-71
2022/07/28 11:53:41;;;;;;;6.43;3.38;;;34.60;78.50;;;;;;5116639;27;20043;-71
2022/07/28 11:56:12;;;;;;;5.93;3.40;;;34.50;77.60;;;;;;5116983;27;20074;-72
2022/07/28 11:58:42;;;;;;;8.52;2.90;;;34.40;77.10;;;;;;5133954;27;20078;-72
2022/07/28 12:01:16;;;;;;;5.43;2.75;;;34.30;75.80;;;;;;5116923;27;20034;-72
2022/07/28 12:03:47;;;;;;;3.92;2.55;;;34.30;75.50;;;;;;5099595;27;20069;-71
2022/07/28 12:06:19;;;;;;;5.15;3.20;;;34.40;77.10;;;;;;5133912;27;20042;-72
2022/07/28 12:08:57;;;;;;;5.65;3.22;;;34.40;77.20;;;;;;5116894;27;20099;-72
2022/07/28 12:11:27;;;;;;;7.13;2.78;;;34.40;77.40;;;;;;5133609;27;20054;-71
2022/07/28 12:14:04;;;;;;;5.03;3.00;;;34.30;78.10;;;;;;5116464;27;20043;-72
2022/07/28 12:16:35;;;;;;;6.15;2.97;;;34.40;78.50;;;;;;5132395;27;20434;-72
2022/07/28 12:19:05;;;;;;;5.72;3.40;;;34.30;77.30;;;;;;5133706;27;20130;-72
2022/07/28 12:21:37;;;;;;;6.75;3.45;;;34.30;77.70;;;;;;5133346;27;20050;-72
2022/07/28 12:24:07;;;;;;;7.65;3.33;;;34.30;79.40;;;;;;5099494;27;20062;-72
2022/07/28 12:26:36;;;;;;;6.45;2.90;;;34.20;79.70;;;;;;5152110;27;20173;-72
2022/07/28 12:29:06;;;;;;;5.32;3.05;;;34.30;80.60;;;;;;5116238;27;20066;-72
2022/07/28 12:31:36;;;;;;;6.18;2.47;;;34.10;79.80;;;;;;5116369;27;20055;-71
2022/07/28 12:34:10;;;;;;;6.03;2.55;;;34.10;79.50;;;;;;5133372;27;20043;-72
2022/07/28 12:36:40;;;;;;;6.15;2.80;;;34.20;77.40;;;;;;5151931;27;20054;-72
2022/07/28 12:39:09;;;;;;;7.78;3.55;;;34.20;77.80;;;;;;5133401;27;20502;-72
2022/07/28 12:41:39;;;;;;;8.63;3.83;;;34.20;76.90;;;;;;5116860;27;20079;-72
2022/07/28 12:44:07;;;;;;;7.80;3.88;;;34.20;76.30;;;;;;5116021;27;20054;-72
2022/07/28 12:46:35;;;;;;;8.35;3.00;;;34.20;78.20;;;;;;5116385;27;20129;-72
2022/07/28 12:49:03;;;;;;;6.05;2.50;;;34.30;78.30;;;;;;5133385;27;20136;-72
2022/07/28 12:51:34;;;;;;;6.53;2.92;;;34.20;77.70;;;;;;5133324;27;20047;-72
2022/07/28 12:54:07;;;;;;;8.25;3.63;;;34.00;78.20;;;;;;5116234;27;20055;-71
2022/07/28 12:56:48;;;;;;;6.57;3.60;;;34.00;78.50;;;;;;5100101;27;20051;-71
2022/07/28 12:59:19;;;;;;;4.85;2.80;;;34.00;78.60;;;;;;5133348;27;20102;-72
2022/07/28 13:02:08;;;;;;;7.03;2.55;;;34.10;78.50;;;;;;5098810;27;20053;-72